sensor_id;sensor_type;location;lat;lon;timestamp;temperature;humidity
1181;DHT22;579;52.046;8.532;2023-04-12T00:00:17;9.00;1.00
1181;DHT22;579;52.046;8.532;2023-04-12T00:02:43;9.00;1.00
1181;DHT22;579;52.046;8.532;2023-04-12T00:05:10;9.10;1.00
1181;DHT22;579;52.046;8.532;2023-04-12T00:07:36;9.20;1.00
1181;DHT22;579;52.046;8.532;2023-04-12T00:14:41;10.00;1.00
1181;DHT22;579;52.046;8.532;2023-04-12T00:17:07;10.10;1.00
1181;DHT22;579;52.046;8.532;2023-04-12T00:19:33;10.10;1.00
1181;DHT22;579;52.046;8.532;2023-04-12T00:21:59;10.20;1.00
1181;DHT22;579;52.046;8.532;2023-04-12T00:24:25;10.20;1.00
1181;DHT22;579;52.046;8.532;2023-04-12T00:26:52;10.10;1.00
1181;DHT22;579;52.046;8.532;2023-04-12T00:29:18;10.50;1.00
1181;DHT22;579;52.046;8.532;2023-04-12T00:34:25;10.50;1.00
1181;DHT22;579;52.046;8.532;2023-04-12T00:36:51;10.50;1.00
1181;DHT22;579;52.046;8.532;2023-04-12T00:39:17;10.60;1.00
1181;DHT22;579;52.046;8.532;2023-04-12T00:41:43;10.40;1.00
1181;DHT22;579;52.046;8.532;2023-04-12T00:44:10;10.40;1.00
1181;DHT22;579;52.046;8.532;2023-04-12T00:46:36;10.30;1.00
1181;DHT22;579;52.046;8.532;2023-04-12T00:49:03;10.10;1.00
1181;DHT22;579;52.046;8.532;2023-04-12T00:54:10;10.10;1.00
1181;DHT22;579;52.046;8.532;2023-04-12T00:56:37;10.00;1.00
1181;DHT22;579;52.046;8.532;2023-04-12T00:59:05;9.80;1.00
1181;DHT22;579;52.046;8.532;2023-04-12T01:01:32;9.80;1.00
1181;DHT22;579;52.046;8.532;2023-04-12T01:03:58;9.80;1.00
1181;DHT22;579;52.046;8.532;2023-04-12T01:06:38;9.90;1.00
1181;DHT22;579;52.046;8.532;2023-04-12T01:09:21;9.90;1.00
1181;DHT22;579;52.046;8.532;2023-04-12T01:17:04;10.00;1.00
1181;DHT22;579;52.046;8.532;2023-04-12T01:19:46;10.00;1.00
1181;DHT22;579;52.046;8.532;2023-04-12T01:22:30;9.90;1.00
1181;DHT22;579;52.046;8.532;2023-04-12T01:25:13;10.00;1.00
1181;DHT22;579;52.046;8.532;2023-04-12T01:27:52;10.00;1.00
1181;DHT22;579;52.046;8.532;2023-04-12T01:30:19;9.80;1.00
1181;DHT22;579;52.046;8.532;2023-04-12T01:32:49;9.90;1.00
1181;DHT22;579;52.046;8.532;2023-04-12T01:40:21;9.40;1.00
1181;DHT22;579;52.046;8.532;2023-04-12T01:42:48;9.30;1.00
1181;DHT22;579;52.046;8.532;2023-04-12T01:45:14;9.50;1.00
1181;DHT22;579;52.046;8.532;2023-04-12T01:47:41;9.60;1.00
1181;DHT22;579;52.046;8.532;2023-04-12T01:50:13;9.60;1.00
1181;DHT22;579;52.046;8.532;2023-04-12T01:52:52;9.70;1.00
1181;DHT22;579;52.046;8.532;2023-04-12T01:55:23;9.70;1.00
1181;DHT22;579;52.046;8.532;2023-04-12T02:02:55;9.60;1.00
1181;DHT22;579;52.046;8.532;2023-04-12T02:05:22;9.90;1.00
1181;DHT22;579;52.046;8.532;2023-04-12T02:07:49;9.70;1.00
1181;DHT22;579;52.046;8.532;2023-04-12T02:10:26;9.90;1.00
1181;DHT22;579;52.046;8.532;2023-04-12T02:12:54;10.00;1.00
1181;DHT22;579;52.046;8.532;2023-04-12T02:15:20;10.00;1.00
1181;DHT22;579;52.046;8.532;2023-04-12T02:17:46;10.10;1.00
1181;DHT22;579;52.046;8.532;2023-04-12T02:25:10;10.40;1.00
1181;DHT22;579;52.046;8.532;2023-04-12T02:27:37;10.40;1.00
1181;DHT22;579;52.046;8.532;2023-04-12T02:30:04;10.20;1.00
1181;DHT22;579;52.046;8.532;2023-04-12T02:32:32;10.10;1.00
1181;DHT22;579;52.046;8.532;2023-04-12T02:35:09;10.10;1.00
1181;DHT22;579;52.046;8.532;2023-04-12T02:37:35;10.00;1.00
1181;DHT22;579;52.046;8.532;2023-04-12T02:40:02;10.10;1.00
1181;DHT22;579;52.046;8.532;2023-04-12T02:47:37;10.20;1.00
1181;DHT22;579;52.046;8.532;2023-04-12T02:50:06;10.30;1.00
1181;DHT22;579;52.046;8.532;2023-04-12T02:52:32;10.10;1.00
1181;DHT22;579;52.046;8.532;2023-04-12T02:54:58;10.30;1.00
1181;DHT22;579;52.046;8.532;2023-04-12T02:57:25;10.50;1.00
1181;DHT22;579;52.046;8.532;2023-04-12T02:59:52;10.40;1.00
1181;DHT22;579;52.046;8.532;2023-04-12T03:02:18;10.40;1.00
1181;DHT22;579;52.046;8.532;2023-04-12T03:07:24;10.10;1.00
1181;DHT22;579;52.046;8.532;2023-04-12T03:09:52;10.30;1.00
1181;DHT22;579;52.046;8.532;2023-04-12T03:12:18;10.30;1.00
1181;DHT22;579;52.046;8.532;2023-04-12T03:14:44;10.70;1.00
1181;DHT22;579;52.046;8.532;2023-04-12T03:17:11;10.90;1.00
1181;DHT22;579;52.046;8.532;2023-04-12T03:19:37;10.80;1.00
1181;DHT22;579;52.046;8.532;2023-04-12T03:22:04;10.60;1.00
1181;DHT22;579;52.046;8.532;2023-04-12T03:27:19;10.70;1.00
1181;DHT22;579;52.046;8.532;2023-04-12T03:29:45;10.70;1.00
1181;DHT22;579;52.046;8.532;2023-04-12T03:32:11;10.80;1.00
1181;DHT22;579;52.046;8.532;2023-04-12T03:34:37;10.70;1.00
1181;DHT22;579;52.046;8.532;2023-04-12T03:37:04;10.80;1.00
1181;DHT22;579;52.046;8.532;2023-04-12T03:39:30;10.50;1.00
1181;DHT22;579;52.046;8.532;2023-04-12T03:41:56;10.40;1.00
1181;DHT22;579;52.046;8.532;2023-04-12T03:49:25;10.30;1.00
1181;DHT22;579;52.046;8.532;2023-04-12T03:51:52;10.60;1.00
1181;DHT22;579;52.046;8.532;2023-04-12T03:54:18;10.40;1.00
1181;DHT22;579;52.046;8.532;2023-04-12T03:56:45;10.50;1.00
1181;DHT22;579;52.046;8.532;2023-04-12T03:59:11;10.10;1.00
1181;DHT22;579;52.046;8.532;2023-04-12T04:01:40;10.10;1.00
1181;DHT22;579;52.046;8.532;2023-04-12T04:04:06;10.10;1.00
1181;DHT22;579;52.046;8.532;2023-04-12T04:11:11;10.40;1.00
1181;DHT22;579;52.046;8.532;2023-04-12T04:13:37;10.20;1.00
1181;DHT22;579;52.046;8.532;2023-04-12T04:16:04;10.50;1.00
1181;DHT22;579;52.046;8.532;2023-04-12T04:18:32;10.60;1.00
1181;DHT22;579;52.046;8.532;2023-04-12T04:21:00;10.30;1.00
1181;DHT22;579;52.046;8.532;2023-04-12T04:23:26;10.30;1.00
1181;DHT22;579;52.046;8.532;2023-04-12T04:25:53;10.40;1.00
1181;DHT22;579;52.046;8.532;2023-04-12T04:33:25;10.80;1.00
1181;DHT22;579;52.046;8.532;2023-04-12T04:35:54;11.00;1.00
1181;DHT22;579;52.046;8.532;2023-04-12T04:38:21;10.80;1.00
1181;DHT22;579;52.046;8.532;2023-04-12T04:40:50;10.70;1.00
1181;DHT22;579;52.046;8.532;2023-04-12T04:43:17;10.40;1.00
1181;DHT22;579;52.046;8.532;2023-04-12T04:45:45;10.20;1.00
1181;DHT22;579;52.046;8.532;2023-04-12T04:48:13;10.10;1.00
1181;DHT22;579;52.046;8.532;2023-04-12T04:57:11;10.30;1.00
1181;DHT22;579;52.046;8.532;2023-04-12T04:59:39;10.30;1.00
1181;DHT22;579;52.046;8.532;2023-04-12T05:02:05;10.10;1.00
1181;DHT22;579;52.046;8.532;2023-04-12T05:04:31;10.20;1.00
1181;DHT22;579;52.046;8.532;2023-04-12T05:06:58;10.40;1.00
1181;DHT22;579;52.046;8.532;2023-04-12T05:09:24;10.50;1.00
1181;DHT22;579;52.046;8.532;2023-04-12T05:11:50;10.60;1.00
1181;DHT22;579;52.046;8.532;2023-04-12T05:19:10;10.40;1.00
1181;DHT22;579;52.046;8.532;2023-04-12T05:21:37;10.40;1.00
1181;DHT22;579;52.046;8.532;2023-04-12T05:24:03;10.40;1.00
1181;DHT22;579;52.046;8.532;2023-04-12T05:26:30;10.50;1.00
1181;DHT22;579;52.046;8.532;2023-04-12T05:28:57;10.70;1.00
1181;DHT22;579;52.046;8.532;2023-04-12T05:31:25;10.60;1.00
1181;DHT22;579;52.046;8.532;2023-04-12T05:33:52;10.40;1.00
1181;DHT22;579;52.046;8.532;2023-04-12T05:41:23;10.30;1.00
1181;DHT22;579;52.046;8.532;2023-04-12T05:43:50;10.40;1.00
1181;DHT22;579;52.046;8.532;2023-04-12T05:46:16;10.50;1.00
1181;DHT22;579;52.046;8.532;2023-04-12T05:48:42;10.60;1.00
1181;DHT22;579;52.046;8.532;2023-04-12T05:51:08;10.60;1.00
1181;DHT22;579;52.046;8.532;2023-04-12T05:53:35;10.60;1.00
1181;DHT22;579;52.046;8.532;2023-04-12T05:56:01;10.80;1.00
1181;DHT22;579;52.046;8.532;2023-04-12T06:03:28;10.70;1.00
1181;DHT22;579;52.046;8.532;2023-04-12T06:05:55;10.50;1.00
1181;DHT22;579;52.046;8.532;2023-04-12T06:08:21;10.40;1.00
1181;DHT22;579;52.046;8.532;2023-04-12T06:10:47;10.70;1.00
1181;DHT22;579;52.046;8.532;2023-04-12T06:13:14;10.60;1.00
1181;DHT22;579;52.046;8.532;2023-04-12T06:15:40;10.60;1.00
1181;DHT22;579;52.046;8.532;2023-04-12T06:18:07;10.80;1.00
1181;DHT22;579;52.046;8.532;2023-04-12T06:24:14;10.80;1.00
1181;DHT22;579;52.046;8.532;2023-04-12T06:26:40;11.00;1.00
1181;DHT22;579;52.046;8.532;2023-04-12T06:29:11;10.80;1.00
1181;DHT22;579;52.046;8.532;2023-04-12T06:31:37;10.80;1.00
1181;DHT22;579;52.046;8.532;2023-04-12T06:34:03;10.60;1.00
1181;DHT22;579;52.046;8.532;2023-04-12T06:36:30;10.70;1.00
1181;DHT22;579;52.046;8.532;2023-04-12T06:38:56;11.10;1.00
1181;DHT22;579;52.046;8.532;2023-04-12T06:47:41;11.40;1.00
1181;DHT22;579;52.046;8.532;2023-04-12T06:50:08;11.30;1.00
1181;DHT22;579;52.046;8.532;2023-04-12T06:52:35;11.30;1.00
1181;DHT22;579;52.046;8.532;2023-04-12T06:55:01;11.30;1.00
1181;DHT22;579;52.046;8.532;2023-04-12T06:57:27;11.60;1.00
1181;DHT22;579;52.046;8.532;2023-04-12T06:59:54;11.40;1.00
1181;DHT22;579;52.046;8.532;2023-04-12T07:02:20;11.40;1.00
1181;DHT22;579;52.046;8.532;2023-04-12T07:09:51;11.60;1.00
1181;DHT22;579;52.046;8.532;2023-04-12T07:12:18;11.50;1.00
1181;DHT22;579;52.046;8.532;2023-04-12T07:14:44;11.80;1.00
1181;DHT22;579;52.046;8.532;2023-04-12T07:17:10;11.40;1.00
1181;DHT22;579;52.046;8.532;2023-04-12T07:19:36;11.20;1.00
1181;DHT22;579;52.046;8.532;2023-04-12T07:22:03;11.30;1.00
1181;DHT22;579;52.046;8.532;2023-04-12T07:24:29;11.50;1.00
1181;DHT22;579;52.046;8.532;2023-04-12T07:29:41;11.20;1.00
1181;DHT22;579;52.046;8.532;2023-04-12T07:32:08;11.20;1.00
1181;DHT22;579;52.046;8.532;2023-04-12T07:34:35;11.20;1.00
1181;DHT22;579;52.046;8.532;2023-04-12T07:37:02;11.20;1.00
1181;DHT22;579;52.046;8.532;2023-04-12T07:39:28;11.30;1.00
1181;DHT22;579;52.046;8.532;2023-04-12T07:41:54;11.10;1.00
1181;DHT22;579;52.046;8.532;2023-04-12T07:44:21;11.20;1.00
1181;DHT22;579;52.046;8.532;2023-04-12T07:51:12;11.10;1.00
1181;DHT22;579;52.046;8.532;2023-04-12T07:53:39;11.10;1.00
1181;DHT22;579;52.046;8.532;2023-04-12T07:56:07;11.00;1.00
1181;DHT22;579;52.046;8.532;2023-04-12T07:58:33;11.10;1.00
1181;DHT22;579;52.046;8.532;2023-04-12T08:01:00;11.30;1.00
1181;DHT22;579;52.046;8.532;2023-04-12T08:03:26;11.40;1.00
1181;DHT22;579;52.046;8.532;2023-04-12T08:05:52;11.30;1.00
1181;DHT22;579;52.046;8.532;2023-04-12T08:12:41;10.90;1.00
1181;DHT22;579;52.046;8.532;2023-04-12T08:15:08;10.80;1.00
1181;DHT22;579;52.046;8.532;2023-04-12T08:17:34;10.80;1.00
1181;DHT22;579;52.046;8.532;2023-04-12T08:20:01;10.60;1.00
1181;DHT22;579;52.046;8.532;2023-04-12T08:22:28;10.90;1.00
1181;DHT22;579;52.046;8.532;2023-04-12T08:24:55;10.90;1.00
1181;DHT22;579;52.046;8.532;2023-04-12T08:27:21;11.20;1.00
1181;DHT22;579;52.046;8.532;2023-04-12T08:33:39;11.30;1.00
1181;DHT22;579;52.046;8.532;2023-04-12T08:36:06;11.50;1.00
1181;DHT22;579;52.046;8.532;2023-04-12T08:38:33;11.10;1.00
1181;DHT22;579;52.046;8.532;2023-04-12T08:40:59;11.10;1.00
1181;DHT22;579;52.046;8.532;2023-04-12T08:43:29;11.10;1.00
1181;DHT22;579;52.046;8.532;2023-04-12T08:45:58;11.20;1.00
1181;DHT22;579;52.046;8.532;2023-04-12T08:48:25;11.20;1.00
1181;DHT22;579;52.046;8.532;2023-04-12T08:55:57;13.00;1.00
1181;DHT22;579;52.046;8.532;2023-04-12T08:58:24;11.20;1.00
1181;DHT22;579;52.046;8.532;2023-04-12T09:00:50;11.00;1.00
1181;DHT22;579;52.046;8.532;2023-04-12T09:03:16;10.80;1.00
1181;DHT22;579;52.046;8.532;2023-04-12T09:05:43;11.20;1.00
1181;DHT22;579;52.046;8.532;2023-04-12T09:08:09;11.30;1.00
1181;DHT22;579;52.046;8.532;2023-04-12T09:10:36;11.50;1.00
1181;DHT22;579;52.046;8.532;2023-04-12T09:18:09;11.60;1.00
1181;DHT22;579;52.046;8.532;2023-04-12T09:20:38;11.50;1.00
1181;DHT22;579;52.046;8.532;2023-04-12T09:23:16;11.60;1.00
1181;DHT22;579;52.046;8.532;2023-04-12T09:25:44;12.40;1.00
1181;DHT22;579;52.046;8.532;2023-04-12T09:28:20;12.30;1.00
1181;DHT22;579;52.046;8.532;2023-04-12T09:30:48;12.30;1.00
1181;DHT22;579;52.046;8.532;2023-04-12T09:33:18;12.50;1.00
1181;DHT22;579;52.046;8.532;2023-04-12T09:38:24;12.70;1.00
1181;DHT22;579;52.046;8.532;2023-04-12T09:40:50;12.50;1.00
1181;DHT22;579;52.046;8.532;2023-04-12T09:43:17;12.50;1.00
1181;DHT22;579;52.046;8.532;2023-04-12T09:45:43;12.40;1.00
1181;DHT22;579;52.046;8.532;2023-04-12T09:48:18;12.60;1.00
1181;DHT22;579;52.046;8.532;2023-04-12T09:50:45;12.80;1.00
1181;DHT22;579;52.046;8.532;2023-04-12T09:53:15;12.70;1.00
1181;DHT22;579;52.046;8.532;2023-04-12T10:00:13;12.80;1.00
1181;DHT22;579;52.046;8.532;2023-04-12T10:02:43;13.00;1.00
1181;DHT22;579;52.046;8.532;2023-04-12T10:05:14;12.90;1.00
1181;DHT22;579;52.046;8.532;2023-04-12T10:07:42;13.10;1.00
1181;DHT22;579;52.046;8.532;2023-04-12T10:10:10;13.10;1.00
1181;DHT22;579;52.046;8.532;2023-04-12T10:12:39;12.70;1.00
1181;DHT22;579;52.046;8.532;2023-04-12T10:15:07;12.80;1.00
1181;DHT22;579;52.046;8.532;2023-04-12T10:22:44;13.10;1.00
1181;DHT22;579;52.046;8.532;2023-04-12T10:25:12;12.90;1.00
1181;DHT22;579;52.046;8.532;2023-04-12T10:27:40;12.80;1.00
1181;DHT22;579;52.046;8.532;2023-04-12T10:30:23;12.70;1.00
1181;DHT22;579;52.046;8.532;2023-04-12T10:33:13;12.90;1.00
1181;DHT22;579;52.046;8.532;2023-04-12T10:35:52;12.80;1.00
1181;DHT22;579;52.046;8.532;2023-04-12T10:38:26;12.50;1.00
1181;DHT22;579;52.046;8.532;2023-04-12T10:43:44;12.60;1.00
1181;DHT22;579;52.046;8.532;2023-04-12T10:49:14;13.20;1.00
1181;DHT22;579;52.046;8.532;2023-04-12T10:52:11;13.00;1.00
1181;DHT22;579;52.046;8.532;2023-04-12T10:54:39;13.20;1.00
1181;DHT22;579;52.046;8.532;2023-04-12T10:57:05;13.30;1.00
1181;DHT22;579;52.046;8.532;2023-04-12T11:05:12;13.40;1.00
1181;DHT22;579;52.046;8.532;2023-04-12T11:07:39;13.20;1.00
1181;DHT22;579;52.046;8.532;2023-04-12T11:10:12;13.40;1.00
1181;DHT22;579;52.046;8.532;2023-04-12T11:12:40;13.40;1.00
1181;DHT22;579;52.046;8.532;2023-04-12T11:15:08;13.30;1.00
1181;DHT22;579;52.046;8.532;2023-04-12T11:17:37;13.70;1.00
1181;DHT22;579;52.046;8.532;2023-04-12T11:20:04;13.60;1.00
1181;DHT22;579;52.046;8.532;2023-04-12T11:27:48;13.50;1.00
1181;DHT22;579;52.046;8.532;2023-04-12T11:30:15;13.60;1.00
1181;DHT22;579;52.046;8.532;2023-04-12T11:32:43;13.80;1.00
1181;DHT22;579;52.046;8.532;2023-04-12T11:35:10;13.90;1.00
1181;DHT22;579;52.046;8.532;2023-04-12T11:37:37;14.10;1.00
1181;DHT22;579;52.046;8.532;2023-04-12T11:40:04;14.70;1.00
1181;DHT22;579;52.046;8.532;2023-04-12T11:42:31;14.70;1.00
1181;DHT22;579;52.046;8.532;2023-04-12T11:45:56;15.00;1.00
1181;DHT22;579;52.046;8.532;2023-04-12T11:48:24;15.20;1.00
1181;DHT22;579;52.046;8.532;2023-04-12T11:50:50;15.80;1.00
1181;DHT22;579;52.046;8.532;2023-04-12T11:53:17;16.20;1.00
1181;DHT22;579;52.046;8.532;2023-04-12T11:55:47;16.00;1.00
1181;DHT22;579;52.046;8.532;2023-04-12T11:58:14;15.90;1.00
1181;DHT22;579;52.046;8.532;2023-04-12T12:00:41;16.20;1.00
1181;DHT22;579;52.046;8.532;2023-04-12T12:06:00;16.10;1.00
1181;DHT22;579;52.046;8.532;2023-04-12T12:08:27;15.80;1.00
1181;DHT22;579;52.046;8.532;2023-04-12T12:10:53;15.70;1.00
1181;DHT22;579;52.046;8.532;2023-04-12T12:13:19;15.20;1.00
1181;DHT22;579;52.046;8.532;2023-04-12T12:15:46;14.70;1.00
1181;DHT22;579;52.046;8.532;2023-04-12T12:18:12;14.70;1.00
1181;DHT22;579;52.046;8.532;2023-04-12T12:20:39;14.70;1.00
1181;DHT22;579;52.046;8.532;2023-04-12T12:28:12;14.50;1.00
1181;DHT22;579;52.046;8.532;2023-04-12T12:30:38;15.00;1.00
1181;DHT22;579;52.046;8.532;2023-04-12T12:33:05;14.60;1.00
1181;DHT22;579;52.046;8.532;2023-04-12T12:35:33;14.40;1.00
1181;DHT22;579;52.046;8.532;2023-04-12T12:38:00;14.00;1.00
1181;DHT22;579;52.046;8.532;2023-04-12T12:40:29;13.80;1.00
1181;DHT22;579;52.046;8.532;2023-04-12T12:42:57;13.90;1.00
1181;DHT22;579;52.046;8.532;2023-04-12T12:49:40;13.90;1.00
1181;DHT22;579;52.046;8.532;2023-04-12T12:52:06;13.80;1.00
1181;DHT22;579;52.046;8.532;2023-04-12T12:54:33;13.50;1.00
1181;DHT22;579;52.046;8.532;2023-04-12T12:57:00;13.40;1.00
1181;DHT22;579;52.046;8.532;2023-04-12T12:59:27;13.40;1.00
1181;DHT22;579;52.046;8.532;2023-04-12T13:01:54;13.20;1.00
1181;DHT22;579;52.046;8.532;2023-04-12T13:04:20;13.10;1.00
1181;DHT22;579;52.046;8.532;2023-04-12T13:11:12;13.40;1.00
1181;DHT22;579;52.046;8.532;2023-04-12T13:13:39;13.30;1.00
1181;DHT22;579;52.046;8.532;2023-04-12T13:16:06;13.20;1.00
1181;DHT22;579;52.046;8.532;2023-04-12T13:18:32;13.00;1.00
1181;DHT22;579;52.046;8.532;2023-04-12T13:20:59;13.20;1.00
1181;DHT22;579;52.046;8.532;2023-04-12T13:23:25;12.90;1.00
1181;DHT22;579;52.046;8.532;2023-04-12T13:25:51;13.20;1.00
1181;DHT22;579;52.046;8.532;2023-04-12T13:33:23;13.20;1.00
1181;DHT22;579;52.046;8.532;2023-04-12T13:35:49;13.00;1.00
1181;DHT22;579;52.046;8.532;2023-04-12T13:38:15;12.80;1.00
1181;DHT22;579;52.046;8.532;2023-04-12T13:40:41;13.00;1.00
1181;DHT22;579;52.046;8.532;2023-04-12T13:43:07;12.90;1.00
1181;DHT22;579;52.046;8.532;2023-04-12T13:45:34;13.20;1.00
1181;DHT22;579;52.046;8.532;2023-04-12T13:48:00;13.00;1.00
1181;DHT22;579;52.046;8.532;2023-04-12T13:55:36;12.70;1.00
1181;DHT22;579;52.046;8.532;2023-04-12T13:58:02;12.80;1.00
1181;DHT22;579;52.046;8.532;2023-04-12T14:00:28;12.90;1.00
1181;DHT22;579;52.046;8.532;2023-04-12T14:02:55;12.90;1.00
1181;DHT22;579;52.046;8.532;2023-04-12T14:05:21;12.90;1.00
1181;DHT22;579;52.046;8.532;2023-04-12T14:07:48;13.20;1.00
1181;DHT22;579;52.046;8.532;2023-04-12T14:10:15;13.60;1.00
1181;DHT22;579;52.046;8.532;2023-04-12T14:17:19;14.00;1.00
1181;DHT22;579;52.046;8.532;2023-04-12T14:19:45;13.80;1.00
1181;DHT22;579;52.046;8.532;2023-04-12T14:22:11;13.90;1.00
1181;DHT22;579;52.046;8.532;2023-04-12T14:24:37;13.90;1.00
1181;DHT22;579;52.046;8.532;2023-04-12T14:27:04;13.70;1.00
1181;DHT22;579;52.046;8.532;2023-04-12T14:29:30;13.90;1.00
1181;DHT22;579;52.046;8.532;2023-04-12T14:31:57;14.80;1.00
1181;DHT22;579;52.046;8.532;2023-04-12T14:37:04;18.20;1.00
1181;DHT22;579;52.046;8.532;2023-04-12T14:39:30;18.10;1.00
1181;DHT22;579;52.046;8.532;2023-04-12T14:41:57;17.80;1.00
1181;DHT22;579;52.046;8.532;2023-04-12T14:44:23;17.40;1.00
1181;DHT22;579;52.046;8.532;2023-04-12T14:46:49;17.10;1.00
1181;DHT22;579;52.046;8.532;2023-04-12T14:49:16;17.00;1.00
1181;DHT22;579;52.046;8.532;2023-04-12T14:51:42;17.50;1.00
1181;DHT22;579;52.046;8.532;2023-04-12T14:59:12;16.70;1.00
1181;DHT22;579;52.046;8.532;2023-04-12T15:01:38;16.60;1.00
1181;DHT22;579;52.046;8.532;2023-04-12T15:04:05;17.40;1.00
1181;DHT22;579;52.046;8.532;2023-04-12T15:06:32;17.90;1.00
1181;DHT22;579;52.046;8.532;2023-04-12T15:08:59;17.90;1.00
1181;DHT22;579;52.046;8.532;2023-04-12T15:11:29;18.00;1.00
1181;DHT22;579;52.046;8.532;2023-04-12T15:14:00;18.00;1.00
1181;DHT22;579;52.046;8.532;2023-04-12T15:21:30;18.30;1.00
1181;DHT22;579;52.046;8.532;2023-04-12T15:23:56;18.10;1.00
1181;DHT22;579;52.046;8.532;2023-04-12T15:26:23;17.90;1.00
1181;DHT22;579;52.046;8.532;2023-04-12T15:28:50;17.50;1.00
1181;DHT22;579;52.046;8.532;2023-04-12T15:31:16;16.80;1.00
1181;DHT22;579;52.046;8.532;2023-04-12T15:33:43;16.50;1.00
1181;DHT22;579;52.046;8.532;2023-04-12T15:36:11;16.70;1.00
1181;DHT22;579;52.046;8.532;2023-04-12T15:43:42;16.10;1.00
1181;DHT22;579;52.046;8.532;2023-04-12T15:46:13;15.70;1.00
1181;DHT22;579;52.046;8.532;2023-04-12T15:48:40;15.40;1.00
1181;DHT22;579;52.046;8.532;2023-04-12T15:51:06;14.80;1.00
1181;DHT22;579;52.046;8.532;2023-04-12T15:53:32;14.80;1.00
1181;DHT22;579;52.046;8.532;2023-04-12T15:55:58;14.90;1.00
1181;DHT22;579;52.046;8.532;2023-04-12T15:58:26;15.00;1.00
1181;DHT22;579;52.046;8.532;2023-04-12T16:04:42;14.90;1.00
1181;DHT22;579;52.046;8.532;2023-04-12T16:07:08;15.30;1.00
1181;DHT22;579;52.046;8.532;2023-04-12T16:09:37;15.10;1.00
1181;DHT22;579;52.046;8.532;2023-04-12T16:12:04;15.20;1.00
1181;DHT22;579;52.046;8.532;2023-04-12T16:14:31;15.00;1.00
1181;DHT22;579;52.046;8.532;2023-04-12T16:16:57;14.70;1.00
1181;DHT22;579;52.046;8.532;2023-04-12T16:19:24;14.40;1.00
1181;DHT22;579;52.046;8.532;2023-04-12T16:28:14;14.30;1.00
1181;DHT22;579;52.046;8.532;2023-04-12T16:30:42;14.20;1.00
1181;DHT22;579;52.046;8.532;2023-04-12T16:33:08;14.00;1.00
1181;DHT22;579;52.046;8.532;2023-04-12T16:35:35;13.10;1.00
1181;DHT22;579;52.046;8.532;2023-04-12T16:38:01;12.50;1.00
1181;DHT22;579;52.046;8.532;2023-04-12T16:40:29;12.10;1.00
1181;DHT22;579;52.046;8.532;2023-04-12T16:42:56;11.60;1.00
1181;DHT22;579;52.046;8.532;2023-04-12T16:48:43;10.70;1.00
1181;DHT22;579;52.046;8.532;2023-04-12T16:51:09;10.50;1.00
1181;DHT22;579;52.046;8.532;2023-04-12T16:53:36;10.50;1.00
1181;DHT22;579;52.046;8.532;2023-04-12T16:56:02;10.50;1.00
1181;DHT22;579;52.046;8.532;2023-04-12T16:58:28;10.40;1.00
1181;DHT22;579;52.046;8.532;2023-04-12T17:00:55;10.50;1.00
1181;DHT22;579;52.046;8.532;2023-04-12T17:03:22;10.40;1.00
1181;DHT22;579;52.046;8.532;2023-04-12T17:11:09;10.50;1.00
1181;DHT22;579;52.046;8.532;2023-04-12T17:13:36;10.70;1.00
1181;DHT22;579;52.046;8.532;2023-04-12T17:16:02;10.60;1.00
1181;DHT22;579;52.046;8.532;2023-04-12T17:18:29;10.70;1.00
1181;DHT22;579;52.046;8.532;2023-04-12T17:20:56;10.70;1.00
1181;DHT22;579;52.046;8.532;2023-04-12T17:23:23;10.70;1.00
1181;DHT22;579;52.046;8.532;2023-04-12T17:25:50;10.70;1.00
1181;DHT22;579;52.046;8.532;2023-04-12T17:33:23;11.10;1.00
1181;DHT22;579;52.046;8.532;2023-04-12T17:35:50;11.20;1.00
1181;DHT22;579;52.046;8.532;2023-04-12T17:38:16;11.00;1.00
1181;DHT22;579;52.046;8.532;2023-04-12T17:40:43;10.80;1.00
1181;DHT22;579;52.046;8.532;2023-04-12T17:43:09;10.90;1.00
1181;DHT22;579;52.046;8.532;2023-04-12T17:45:35;10.90;1.00
1181;DHT22;579;52.046;8.532;2023-04-12T17:48:01;11.20;1.00
1181;DHT22;579;52.046;8.532;2023-04-12T17:54:21;11.00;1.00
1181;DHT22;579;52.046;8.532;2023-04-12T17:56:48;10.70;1.00
1181;DHT22;579;52.046;8.532;2023-04-12T17:59:15;10.70;1.00
1181;DHT22;579;52.046;8.532;2023-04-12T18:01:41;10.50;1.00
1181;DHT22;579;52.046;8.532;2023-04-12T18:04:07;10.80;1.00
1181;DHT22;579;52.046;8.532;2023-04-12T18:06:34;10.90;1.00
1181;DHT22;579;52.046;8.532;2023-04-12T18:09:00;10.90;1.00
1181;DHT22;579;52.046;8.532;2023-04-12T18:14:11;10.30;1.00
1181;DHT22;579;52.046;8.532;2023-04-12T18:16:37;10.30;1.00
1181;DHT22;579;52.046;8.532;2023-04-12T18:19:05;10.60;1.00
1181;DHT22;579;52.046;8.532;2023-04-12T18:21:32;10.50;1.00
1181;DHT22;579;52.046;8.532;2023-04-12T18:23:59;10.60;1.00
1181;DHT22;579;52.046;8.532;2023-04-12T18:26:27;10.70;1.00
1181;DHT22;579;52.046;8.532;2023-04-12T18:28:53;10.80;1.00
1181;DHT22;579;52.046;8.532;2023-04-12T18:34:09;11.00;1.00
1181;DHT22;579;52.046;8.532;2023-04-12T18:36:36;11.00;1.00
1181;DHT22;579;52.046;8.532;2023-04-12T18:39:03;11.10;1.00
1181;DHT22;579;52.046;8.532;2023-04-12T18:41:30;11.10;1.00
1181;DHT22;579;52.046;8.532;2023-04-12T18:43:56;11.10;1.00
1181;DHT22;579;52.046;8.532;2023-04-12T18:46:22;11.10;1.00
1181;DHT22;579;52.046;8.532;2023-04-12T18:48:51;10.90;1.00
1181;DHT22;579;52.046;8.532;2023-04-12T18:56:24;10.60;1.00
1181;DHT22;579;52.046;8.532;2023-04-12T18:58:51;10.60;1.00
1181;DHT22;579;52.046;8.532;2023-04-12T19:01:19;10.60;1.00
1181;DHT22;579;52.046;8.532;2023-04-12T19:03:46;10.60;1.00
1181;DHT22;579;52.046;8.532;2023-04-12T19:06:13;10.70;1.00
1181;DHT22;579;52.046;8.532;2023-04-12T19:08:40;10.70;1.00
1181;DHT22;579;52.046;8.532;2023-04-12T19:11:07;10.60;1.00
1181;DHT22;579;52.046;8.532;2023-04-12T19:17:43;10.80;1.00
1181;DHT22;579;52.046;8.532;2023-04-12T19:20:10;10.80;1.00
1181;DHT22;579;52.046;8.532;2023-04-12T19:22:36;10.70;1.00
1181;DHT22;579;52.046;8.532;2023-04-12T19:25:03;10.50;1.00
1181;DHT22;579;52.046;8.532;2023-04-12T19:27:30;10.10;1.00
1181;DHT22;579;52.046;8.532;2023-04-12T19:29:57;9.90;1.00
1181;DHT22;579;52.046;8.532;2023-04-12T19:32:23;9.90;1.00
1181;DHT22;579;52.046;8.532;2023-04-12T19:39:44;9.70;1.00
1181;DHT22;579;52.046;8.532;2023-04-12T19:42:10;9.90;1.00
1181;DHT22;579;52.046;8.532;2023-04-12T19:44:36;9.70;1.00
1181;DHT22;579;52.046;8.532;2023-04-12T19:47:02;9.60;1.00
1181;DHT22;579;52.046;8.532;2023-04-12T19:49:29;9.30;1.00
1181;DHT22;579;52.046;8.532;2023-04-12T19:51:57;8.90;1.00
1181;DHT22;579;52.046;8.532;2023-04-12T19:54:24;9.00;1.00
1181;DHT22;579;52.046;8.532;2023-04-12T20:01:14;9.20;1.00
1181;DHT22;579;52.046;8.532;2023-04-12T20:03:43;9.20;1.00
1181;DHT22;579;52.046;8.532;2023-04-12T20:06:09;9.40;1.00
1181;DHT22;579;52.046;8.532;2023-04-12T20:08:36;9.50;1.00
1181;DHT22;579;52.046;8.532;2023-04-12T20:11:03;9.40;1.00
1181;DHT22;579;52.046;8.532;2023-04-12T20:13:30;9.80;1.00
1181;DHT22;579;52.046;8.532;2023-04-12T20:15:57;9.80;1.00
1181;DHT22;579;52.046;8.532;2023-04-12T20:22:14;9.90;1.00
1181;DHT22;579;52.046;8.532;2023-04-12T20:24:40;10.20;1.00
1181;DHT22;579;52.046;8.532;2023-04-12T20:27:06;9.20;1.00
1181;DHT22;579;52.046;8.532;2023-04-12T20:29:34;10.20;1.00
1181;DHT22;579;52.046;8.532;2023-04-12T20:32:01;10.30;1.00
1181;DHT22;579;52.046;8.532;2023-04-12T20:34:28;10.40;1.00
1181;DHT22;579;52.046;8.532;2023-04-12T20:36:54;10.60;1.00
1181;DHT22;579;52.046;8.532;2023-04-12T20:44:24;9.80;1.00
1181;DHT22;579;52.046;8.532;2023-04-12T20:46:50;10.10;1.00
1181;DHT22;579;52.046;8.532;2023-04-12T20:49:17;9.80;1.00
1181;DHT22;579;52.046;8.532;2023-04-12T20:51:43;10.00;1.00
1181;DHT22;579;52.046;8.532;2023-04-12T20:54:11;9.90;1.00